createdAt,value
2024-01-05T00:00:40.259Z,5.47
2024-01-05T00:03:32.986Z,4.45
2024-01-05T00:06:25.798Z,3.40
2024-01-05T00:09:20.387Z,5.20
2024-01-05T00:12:13.828Z,3.38
2024-01-05T00:15:07.757Z,4.72
2024-01-05T00:18:01.247Z,3.88
2024-01-05T00:20:55.234Z,3.95
2024-01-05T00:24:13.146Z,3.90
2024-01-05T00:27:07.740Z,4.95
2024-01-05T00:30:01.017Z,6.90
2024-01-05T00:32:54.274Z,3.65
2024-01-05T00:35:48.157Z,5.25
2024-01-05T00:38:42.352Z,3.72
2024-01-05T00:41:35.953Z,6.72
2024-01-05T00:44:30.182Z,5.93
2024-01-05T00:47:49.237Z,5.60
2024-01-05T00:50:42.287Z,4.75
2024-01-05T00:53:35.016Z,2.75
2024-01-05T00:56:27.981Z,3.10
2024-01-05T00:59:21.818Z,3.33
2024-01-05T01:02:16.255Z,4.70
2024-01-05T01:05:09.704Z,5.38
2024-01-05T01:08:02.794Z,3.58
2024-01-05T01:10:55.958Z,3.88
2024-01-05T01:13:48.874Z,3.58
2024-01-05T01:16:42.422Z,4.40
2024-01-05T01:19:37.300Z,4.25
2024-01-05T01:22:30.179Z,3.28
2024-01-05T01:25:22.991Z,5.35
2024-01-05T01:28:16.508Z,3.75
2024-01-05T01:31:10.358Z,4.57
2024-01-05T01:34:03.188Z,3.10
2024-01-05T01:36:57.539Z,2.67
2024-01-05T01:39:51.357Z,4.43
2024-01-05T01:42:46.126Z,3.45
2024-01-05T01:45:39.223Z,3.63
2024-01-05T01:48:32.393Z,4.28
2024-01-05T01:51:55.348Z,2.50
2024-01-05T01:54:49.549Z,4.72
2024-01-05T01:57:43.400Z,4.55
2024-01-05T02:00:36.491Z,3.75
2024-01-05T02:03:30.218Z,3.20
2024-01-05T02:06:23.252Z,2.05
2024-01-05T02:09:16.207Z,4.15
2024-01-05T02:12:10.892Z,3.42
2024-01-05T02:15:04.333Z,3.38
2024-01-05T02:17:57.137Z,3.03
2024-01-05T02:20:50.366Z,4.53
2024-01-05T02:23:44.528Z,3.03
2024-01-05T02:26:38.493Z,2.33
2024-01-05T02:29:32.235Z,3.83
2024-01-05T02:32:25.752Z,4.45
2024-01-05T02:35:19.829Z,4.35
2024-01-05T02:38:13.257Z,2.92
2024-01-05T02:41:08.448Z,2.65
2024-01-05T02:44:01.328Z,4.22
2024-01-05T02:47:44.714Z,2.50
2024-01-05T02:50:38.020Z,2.65
2024-01-05T02:53:31.083Z,3.95
2024-01-05T02:56:26.378Z,2.17
2024-01-05T02:59:20.091Z,4.03
2024-01-05T03:02:14.080Z,3.53
2024-01-05T03:05:07.608Z,2.85
2024-01-05T03:08:01.372Z,3.22
2024-01-05T03:10:54.306Z,3.90
2024-01-05T03:13:48.908Z,2.97
2024-01-05T03:16:42.468Z,2.30
2024-01-05T03:19:36.707Z,2.22
2024-01-05T03:22:32.048Z,4.07
2024-01-05T03:26:16.648Z,4.15
2024-01-05T03:29:11.703Z,2.03
2024-01-05T03:32:05.504Z,3.20
2024-01-05T03:34:58.130Z,4.03
2024-01-05T03:37:51.140Z,3.17
2024-01-05T03:40:44.061Z,4.60
2024-01-05T03:43:36.930Z,3.80
2024-01-05T03:46:31.816Z,2.83
2024-01-05T03:49:25.353Z,2.40
2024-01-05T03:52:18.355Z,1.88
2024-01-05T03:55:11.171Z,2.70
2024-01-05T03:58:54.630Z,2.38
2024-01-05T04:01:50.763Z,4.38
2024-01-05T04:04:44.303Z,2.83
2024-01-05T04:07:37.607Z,3.45
2024-01-05T04:10:31.279Z,3.47
2024-01-05T04:13:24.242Z,3.47
2024-01-05T04:16:17.304Z,3.10
2024-01-05T04:19:12.150Z,2.80
2024-01-05T04:22:06.716Z,2.70
2024-01-05T04:25:00.423Z,2.22
2024-01-05T04:27:53.707Z,1.88
2024-01-05T04:30:47.432Z,2.17
2024-01-05T04:33:40.086Z,3.67
2024-01-05T04:36:34.497Z,2.55
2024-01-05T04:39:28.246Z,1.75
2024-01-05T04:42:21.210Z,2.50
2024-01-05T04:45:14.797Z,4.35
2024-01-05T04:48:08.525Z,2.80
2024-01-05T04:51:02.606Z,2.92
2024-01-05T04:53:58.010Z,2.60
2024-01-05T04:56:51.338Z,2.35
2024-01-05T04:59:44.377Z,2.60
2024-01-05T05:02:37.350Z,3.55
2024-01-05T05:05:30.088Z,3.40
2024-01-05T05:08:23.277Z,2.30
2024-01-05T05:11:18.891Z,2.72
2024-01-05T05:14:11.970Z,1.67
2024-01-05T05:17:05.658Z,2.65
2024-01-05T05:19:59.055Z,3.05
2024-01-05T05:22:52.240Z,2.97
2024-01-05T05:25:45.464Z,3.28
2024-01-05T05:28:39.730Z,2.08
2024-01-05T05:31:33.619Z,3.17
2024-01-05T05:34:27.537Z,2.72
2024-01-05T05:37:20.936Z,2.53
2024-01-05T05:40:14.421Z,3.50
2024-01-05T05:43:07.284Z,2.10
2024-01-05T05:46:50.787Z,2.05
2024-01-05T05:49:46.213Z,1.90
2024-01-05T05:52:39.453Z,2.35
2024-01-05T05:55:32.509Z,3.45
2024-01-05T05:58:25.171Z,2.17
2024-01-05T06:01:18.333Z,2.88
2024-01-05T06:04:11.008Z,1.90
2024-01-05T06:07:06.152Z,1.75
2024-01-05T06:10:00.783Z,2.20
2024-01-05T06:12:54.678Z,2.45
2024-01-05T06:15:48.250Z,3.03
2024-01-05T06:18:42.864Z,1.48
2024-01-05T06:21:36.777Z,2.15
2024-01-05T06:24:31.363Z,3.20
2024-01-05T06:27:32.624Z,2.60
2024-01-05T06:30:29.569Z,2.67
2024-01-05T06:33:22.130Z,2.85
2024-01-05T06:36:15.362Z,2.05
2024-01-05T06:39:08.212Z,2.67
2024-01-05T06:42:02.619Z,2.40
2024-01-05T06:44:56.101Z,1.13
2024-01-05T06:48:40.908Z,2.30
2024-01-05T06:51:38.887Z,2.03
2024-01-05T06:54:32.530Z,1.90
2024-01-05T06:57:26.630Z,2.42
2024-01-05T07:00:20.169Z,2.88
2024-01-05T07:03:13.343Z,2.03
2024-01-05T07:06:57.488Z,2.15
2024-01-05T07:09:50.281Z,1.67
2024-01-05T07:12:44.785Z,2.22
2024-01-05T07:15:38.253Z,2.70
2024-01-05T07:18:31.997Z,2.13
2024-01-05T07:21:25.556Z,2.38
2024-01-05T07:24:18.582Z,1.92
2024-01-05T07:28:01.772Z,3.08
2024-01-05T07:30:56.707Z,3.08
2024-01-05T07:33:50.258Z,3.15
2024-01-05T07:36:44.100Z,6.13
2024-01-05T07:39:37.219Z,7.68
2024-01-05T07:42:32.043Z,2.42
2024-01-05T07:45:25.603Z,3.58
2024-01-05T07:48:20.185Z,3.15
2024-01-05T07:51:13.218Z,2.50
2024-01-05T07:54:56.611Z,6.22
2024-01-05T07:57:49.580Z,3.50
2024-01-05T08:00:42.745Z,3.22
2024-01-05T08:03:37.611Z,2.28
2024-01-05T08:06:30.789Z,4.70
2024-01-05T08:09:24.049Z,2.28
2024-01-05T08:12:18.249Z,3.08
2024-01-05T08:16:01.922Z,4.03
2024-01-05T08:18:56.965Z,4.15
2024-01-05T08:21:51.080Z,6.18
2024-01-05T08:24:44.651Z,3.47
2024-01-05T08:27:37.723Z,3.53
2024-01-05T08:30:32.023Z,5.50
2024-01-05T08:33:25.451Z,3.05
2024-01-05T08:36:19.939Z,2.65
2024-01-05T08:39:13.460Z,3.90
2024-01-05T08:42:07.157Z,4.10
2024-01-05T08:45:00.708Z,4.30
2024-01-05T08:47:55.023Z,4.35
2024-01-05T08:50:48.407Z,3.83
2024-01-05T08:53:43.457Z,4.10
2024-01-05T08:56:36.501Z,3.75
2024-01-05T08:59:29.811Z,5.38
2024-01-05T09:02:24.586Z,2.45
2024-01-05T09:05:17.704Z,3.28
2024-01-05T09:08:10.203Z,2.97
2024-01-05T09:11:05.822Z,3.33
2024-01-05T09:13:59.464Z,4.28
2024-01-05T09:16:52.482Z,5.15
2024-01-05T09:19:46.039Z,1.73
2024-01-05T09:22:39.614Z,9.40
2024-01-05T09:25:34.892Z,12.43
2024-01-05T09:28:30.895Z,11.45
2024-01-05T09:31:26.136Z,13.65
2024-01-05T09:34:19.186Z,13.10
2024-01-05T09:37:12.633Z,8.50
2024-01-05T09:40:06.436Z,12.15
2024-01-05T09:43:03.490Z,13.15
2024-01-05T09:46:46.886Z,11.68
2024-01-05T09:49:46.250Z,6.70
2024-01-05T09:52:40.064Z,10.75
2024-01-05T09:55:33.858Z,10.40
2024-01-05T09:58:28.031Z,11.07
2024-01-05T10:01:27.998Z,9.57
2024-01-05T10:04:22.087Z,6.82
2024-01-05T10:07:17.386Z,8.93
2024-01-05T10:10:12.071Z,12.63
2024-01-05T10:13:07.871Z,6.15
2024-01-05T10:16:03.885Z,9.43
2024-01-05T10:19:12.297Z,10.10
2024-01-05T10:22:11.525Z,7.70
2024-01-05T10:25:18.044Z,6.93
2024-01-05T10:28:24.486Z,7.18
2024-01-05T10:31:18.852Z,11.52
2024-01-05T10:34:12.476Z,6.32
2024-01-05T10:37:06.479Z,6.75
2024-01-05T10:40:04.741Z,6.00
2024-01-05T10:43:09.825Z,7.38
2024-01-05T10:46:53.271Z,6.32
2024-01-05T10:49:49.844Z,6.38
2024-01-05T10:52:46.259Z,8.95
2024-01-05T10:55:40.195Z,7.93
2024-01-05T10:58:35.067Z,6.88
2024-01-05T11:01:33.062Z,7.45
2024-01-05T11:04:28.479Z,6.82
2024-01-05T11:07:22.501Z,11.27
2024-01-05T11:10:34.678Z,6.10
2024-01-05T11:13:52.413Z,6.35
2024-01-05T11:17:05.131Z,6.72
2024-01-05T11:20:26.769Z,6.32
2024-01-05T11:23:21.775Z,4.90
2024-01-05T11:26:35.906Z,7.43
2024-01-05T11:29:55.010Z,7.18
2024-01-05T11:32:49.260Z,3.70
2024-01-05T11:35:44.700Z,6.65
2024-01-05T11:38:44.787Z,4.97
2024-01-05T11:41:39.330Z,5.30
2024-01-05T11:44:34.134Z,6.30
2024-01-05T11:47:47.983Z,5.82
2024-01-05T11:50:41.872Z,6.70
2024-01-05T11:53:35.067Z,4.00
2024-01-05T11:56:28.899Z,8.75
2024-01-05T11:59:21.815Z,6.78
2024-01-05T12:02:19.386Z,5.90
2024-01-05T12:05:18.952Z,6.65
2024-01-05T12:08:13.281Z,6.82
2024-01-05T12:11:09.372Z,4.28
2024-01-05T12:14:03.911Z,5.20
2024-01-05T12:17:13.693Z,6.07
2024-01-05T12:20:12.128Z,4.90
2024-01-05T12:23:07.666Z,4.55
2024-01-05T12:26:01.874Z,4.60
2024-01-05T12:29:45.899Z,5.13
2024-01-05T12:32:38.955Z,5.55
2024-01-05T12:35:33.119Z,8.77
2024-01-05T12:38:31.487Z,6.03
2024-01-05T12:41:24.689Z,5.70
2024-01-05T12:44:18.056Z,6.20
2024-01-05T12:47:11.714Z,5.55
2024-01-05T12:50:05.788Z,4.60
2024-01-05T12:52:58.869Z,7.65
2024-01-05T12:55:53.195Z,4.00
2024-01-05T12:58:48.293Z,4.30
2024-01-05T13:01:41.874Z,5.53
2024-01-05T13:04:40.332Z,3.97
2024-01-05T13:07:34.310Z,3.60
2024-01-05T13:10:28.137Z,3.70
2024-01-05T13:13:22.795Z,3.17
2024-01-05T13:16:15.538Z,4.82
2024-01-05T13:19:59.272Z,4.57
2024-01-05T13:22:53.545Z,4.90
2024-01-05T13:25:46.580Z,5.55
2024-01-05T13:28:41.880Z,5.25
2024-01-05T13:31:35.908Z,3.67
2024-01-05T13:34:29.868Z,4.90
2024-01-05T13:37:25.609Z,3.55
2024-01-05T13:40:18.885Z,3.30
2024-01-05T13:43:12.001Z,3.45
2024-01-05T13:46:08.142Z,6.40
2024-01-05T13:49:01.694Z,3.80
2024-01-05T13:52:45.132Z,6.93
2024-01-05T13:55:39.109Z,5.60
2024-01-05T13:58:33.105Z,6.50
2024-01-05T14:01:28.419Z,3.78
2024-01-05T14:04:21.423Z,3.97
2024-01-05T14:07:14.489Z,3.40
2024-01-05T14:10:08.236Z,5.25
2024-01-05T14:13:02.530Z,3.78
2024-01-05T14:15:55.532Z,5.20
2024-01-05T14:18:51.615Z,7.82
2024-01-05T14:21:44.683Z,3.55
2024-01-05T14:25:29.445Z,3.95
2024-01-05T14:28:22.691Z,5.05
2024-01-05T14:31:28.171Z,2.70
2024-01-05T14:34:23.080Z,6.10
2024-01-05T14:37:16.489Z,4.32
2024-01-05T14:40:13.111Z,7.30
2024-01-05T14:43:07.085Z,4.43
2024-01-05T14:46:01.252Z,6.15
2024-01-05T14:48:55.291Z,3.03
2024-01-05T14:51:50.504Z,3.88
2024-01-05T14:54:44.150Z,4.35
2024-01-05T14:57:38.620Z,8.27
2024-01-05T15:00:31.915Z,2.95
2024-01-05T15:03:25.403Z,3.10
2024-01-05T15:06:23.153Z,5.72
2024-01-05T15:09:18.677Z,2.42
2024-01-05T15:12:12.197Z,3.97
2024-01-05T15:15:08.476Z,5.95
2024-01-05T15:18:02.358Z,5.15
2024-01-05T15:20:55.656Z,2.70
2024-01-05T15:23:48.834Z,4.68
2024-01-05T15:26:46.976Z,2.75
2024-01-05T15:29:41.288Z,5.18
2024-01-05T15:32:34.947Z,5.40
2024-01-05T15:35:28.072Z,3.13
2024-01-05T15:38:21.561Z,4.93
2024-01-05T15:41:14.701Z,3.88
2024-01-05T15:44:09.194Z,3.15
2024-01-05T15:47:53.311Z,4.57
2024-01-05T15:50:47.057Z,2.38
2024-01-05T15:53:41.630Z,2.47
2024-01-05T15:56:34.859Z,3.05
2024-01-05T15:59:31.372Z,4.03
2024-01-05T16:02:24.540Z,2.47
2024-01-05T16:05:18.081Z,4.22
2024-01-05T16:08:11.858Z,2.90
2024-01-05T16:11:05.767Z,5.90
2024-01-05T16:13:58.973Z,3.53
2024-01-05T16:16:53.614Z,2.55
2024-01-05T16:19:46.784Z,3.42
2024-01-05T16:22:40.067Z,4.53
2024-01-05T16:25:33.828Z,4.10
2024-01-05T16:28:26.761Z,3.03
2024-01-05T16:31:20.938Z,2.55
2024-01-05T16:34:16.837Z,4.50
2024-01-05T16:37:09.654Z,5.72
2024-01-05T16:40:02.904Z,3.17
2024-01-05T16:42:56.080Z,4.53
2024-01-05T16:45:49.117Z,5.40
2024-01-05T16:48:45.692Z,4.80
2024-01-05T16:51:40.644Z,5.68
2024-01-05T16:54:34.880Z,4.13
2024-01-05T16:57:28.726Z,4.28
2024-01-05T17:00:22.574Z,3.67
2024-01-05T17:03:15.940Z,2.50
2024-01-05T17:06:19.008Z,3.55
2024-01-05T17:09:15.171Z,4.47
2024-01-05T17:12:08.802Z,3.97
2024-01-05T17:15:02.235Z,4.63
2024-01-05T17:17:55.869Z,3.05
2024-01-05T17:20:49.564Z,4.38
2024-01-05T17:23:43.255Z,3.13
2024-01-05T17:26:41.719Z,4.93
2024-01-05T17:29:36.232Z,3.80
2024-01-05T17:32:29.937Z,2.40
2024-01-05T17:35:22.860Z,4.85
2024-01-05T17:38:16.289Z,4.10
2024-01-05T17:41:09.989Z,28.80
2024-01-05T17:44:04.848Z,16.98
2024-01-05T17:46:57.672Z,15.27
2024-01-05T17:49:50.997Z,18.67
2024-01-05T17:52:43.943Z,22.33
2024-01-05T17:55:36.826Z,19.52
2024-01-05T17:58:54.778Z,17.77
2024-01-05T18:01:50.601Z,20.92
2024-01-05T18:04:44.446Z,18.80
2024-01-05T18:07:37.835Z,18.10
2024-01-05T18:10:30.777Z,16.83
2024-01-05T18:13:24.415Z,14.48
2024-01-05T18:16:22.864Z,14.35
2024-01-05T18:19:17.419Z,15.40
2024-01-05T18:22:10.752Z,15.35
2024-01-05T18:25:04.066Z,15.90
2024-01-05T18:28:47.355Z,12.77
2024-01-05T18:31:40.952Z,16.40
2024-01-05T18:34:36.169Z,15.30
2024-01-05T18:37:29.866Z,16.83
2024-01-05T18:40:22.881Z,14.55
2024-01-05T18:43:15.763Z,12.73
2024-01-05T18:46:08.997Z,16.55
2024-01-05T18:49:03.007Z,14.13
2024-01-05T18:51:57.328Z,17.75
2024-01-05T18:54:51.212Z,14.18
2024-01-05T18:57:45.276Z,13.95
2024-01-05T19:00:39.948Z,14.82
2024-01-05T19:03:33.013Z,14.27
2024-01-05T19:06:26.818Z,13.60
2024-01-05T19:09:21.083Z,13.57
2024-01-05T19:12:13.672Z,13.40
2024-01-05T19:15:07.864Z,13.70
2024-01-05T19:18:01.250Z,11.80
2024-01-05T19:20:55.428Z,10.93
2024-01-05T19:23:49.154Z,13.88
2024-01-05T19:26:44.038Z,13.27
2024-01-05T19:29:39.577Z,11.23
2024-01-05T19:32:32.588Z,13.27
2024-01-05T19:35:25.722Z,11.00
2024-01-05T19:38:19.501Z,10.18
2024-01-05T19:41:13.262Z,10.43
2024-01-05T19:44:08.355Z,10.25
2024-01-05T19:47:02.221Z,13.18
2024-01-05T19:49:55.096Z,12.75
2024-01-05T19:52:47.936Z,9.60
2024-01-05T19:55:40.963Z,12.07
2024-01-05T19:58:34.167Z,13.10
2024-01-05T20:01:32.312Z,9.18
2024-01-05T20:04:27.223Z,9.68
2024-01-05T20:07:21.079Z,11.73
2024-01-05T20:10:13.634Z,8.43
2024-01-05T20:13:09.801Z,8.80
2024-01-05T20:16:03.094Z,7.28
2024-01-05T20:18:57.633Z,9.07
2024-01-05T20:21:51.408Z,8.50
2024-01-05T20:24:45.124Z,10.95
2024-01-05T20:27:39.086Z,8.15
2024-01-05T20:30:32.752Z,8.68
2024-01-05T20:33:29.435Z,8.23
2024-01-05T20:36:24.655Z,7.90
2024-01-05T20:39:18.078Z,9.13
2024-01-05T20:42:11.288Z,7.63
2024-01-05T20:45:08.594Z,9.40
2024-01-05T20:48:01.882Z,9.18
2024-01-05T20:50:54.797Z,8.27
2024-01-05T20:53:49.482Z,7.50
2024-01-05T20:56:42.913Z,8.73
2024-01-05T20:59:36.139Z,7.15
2024-01-05T21:02:29.289Z,7.43
2024-01-05T21:05:22.018Z,6.78
2024-01-05T21:08:16.103Z,6.22
2024-01-05T21:11:10.475Z,6.68
2024-01-05T21:14:03.943Z,7.65
2024-01-05T21:16:56.936Z,8.60
2024-01-05T21:19:50.346Z,9.07
2024-01-05T21:22:44.874Z,20.38
2024-01-05T21:26:28.446Z,8.68
2024-01-05T21:29:23.357Z,9.88
2024-01-05T21:32:20.247Z,10.82
2024-01-05T21:35:13.142Z,14.52
2024-01-05T21:38:06.265Z,11.00
2024-01-05T21:40:59.267Z,11.85
2024-01-05T21:43:52.352Z,10.90
2024-01-05T21:46:46.596Z,10.07
2024-01-05T21:49:40.643Z,10.02
2024-01-05T21:52:34.124Z,9.43
2024-01-05T21:55:27.013Z,9.90
2024-01-05T21:58:20.197Z,10.48
2024-01-05T22:01:12.996Z,10.70
2024-01-05T22:04:07.762Z,10.20
2024-01-05T22:07:02.027Z,9.75
2024-01-05T22:09:55.397Z,11.73
2024-01-05T22:12:52.553Z,10.45
2024-01-05T22:15:46.125Z,8.55
2024-01-05T22:18:39.467Z,8.05
2024-01-05T22:21:34.776Z,8.70
2024-01-05T22:24:30.268Z,8.85
2024-01-05T22:27:23.848Z,8.98
2024-01-05T22:30:17.242Z,8.57
2024-01-05T22:33:10.248Z,7.78
2024-01-05T22:36:04.732Z,7.97
2024-01-05T22:38:59.394Z,8.88
2024-01-05T22:41:53.126Z,10.07
2024-01-05T22:44:46.199Z,8.65
2024-01-05T22:47:40.327Z,7.90
2024-01-05T22:50:33.965Z,8.75
2024-01-05T22:53:27.228Z,7.95
2024-01-05T22:56:21.477Z,7.85
2024-01-05T22:59:16.074Z,8.73
2024-01-05T23:02:08.880Z,7.15
2024-01-05T23:05:02.183Z,11.73
2024-01-05T23:07:55.414Z,7.45
2024-01-05T23:10:48.875Z,9.30
2024-01-05T23:13:44.828Z,8.02
2024-01-05T23:16:38.084Z,8.65
2024-01-05T23:19:31.224Z,7.25
2024-01-05T23:22:25.806Z,7.70
2024-01-05T23:25:18.949Z,7.07
2024-01-05T23:28:12.079Z,8.05
2024-01-05T23:31:06.654Z,8.98
2024-01-05T23:34:12.055Z,9.05
2024-01-05T23:37:09.070Z,8.32
2024-01-05T23:40:02.262Z,7.63
2024-01-05T23:42:55.521Z,4.82
2024-01-05T23:45:49.537Z,7.88
2024-01-05T23:48:44.555Z,7.43
2024-01-05T23:51:38.313Z,7.85
2024-01-05T23:54:31.160Z,8.13
2024-01-05T23:58:14.460Z,7.28
